createdAt,value
2023-03-18T00:04:12.715Z,13.73
2023-03-18T00:09:18.295Z,12.43
2023-03-18T00:14:22.537Z,14.52
2023-03-18T00:19:26.715Z,11.25
2023-03-18T00:24:32.351Z,11.23
2023-03-18T00:29:36.496Z,10.82
2023-03-18T00:34:40.649Z,15.07
2023-03-18T00:39:46.824Z,11.85
2023-03-18T00:44:51.204Z,14.25
2023-03-18T00:49:56.840Z,11.15
2023-03-18T00:55:02.436Z,8.52
2023-03-18T01:00:08.501Z,10.07
2023-03-18T01:05:14.168Z,15.43
2023-03-18T01:10:19.843Z,11.90
2023-03-18T01:15:24.167Z,11.25
2023-03-18T01:20:29.329Z,11.30
2023-03-18T01:25:37.403Z,12.48
2023-03-18T01:30:42.354Z,12.65
2023-03-18T01:35:49.566Z,11.45
2023-03-18T01:40:55.257Z,11.40
2023-03-18T01:46:02.420Z,11.17
2023-03-18T01:56:16.944Z,14.45
2023-03-18T02:01:27.895Z,12.48
2023-03-18T02:06:33.777Z,14.10
2023-03-18T02:11:42.474Z,13.15
2023-03-18T02:16:52.729Z,20.48
2023-03-18T02:22:15.421Z,38.35
2023-03-18T02:27:24.165Z,16.60
2023-03-18T02:37:32.532Z,18.98
2023-03-18T02:42:38.814Z,18.65
2023-03-18T02:47:46.484Z,19.37
2023-03-18T02:57:57.511Z,19.48
2023-03-18T03:03:04.016Z,16.35
2023-03-18T03:08:09.478Z,16.80
2023-03-18T03:13:18.818Z,13.35
2023-03-18T03:18:24.452Z,11.82
2023-03-18T03:23:29.515Z,12.65
2023-03-18T03:28:35.392Z,15.02
2023-03-18T03:33:41.859Z,14.57
2023-03-18T03:38:47.054Z,20.73
2023-03-18T03:43:52.553Z,12.68
2023-03-18T03:48:56.659Z,14.60
2023-03-18T03:54:01.019Z,17.80
2023-03-18T03:59:07.190Z,17.27
2023-03-18T04:04:33.767Z,17.08
2023-03-18T04:09:38.123Z,17.98
2023-03-18T04:14:44.005Z,20.00
2023-03-18T04:19:49.648Z,15.77
2023-03-18T04:24:54.080Z,22.38
2023-03-18T04:29:59.576Z,16.27
2023-03-18T04:35:16.297Z,15.75
2023-03-18T04:40:21.925Z,15.13
2023-03-18T04:45:28.398Z,18.55
2023-03-18T04:50:35.839Z,15.60
2023-03-18T04:55:41.816Z,20.20
2023-03-18T05:00:49.398Z,15.27
2023-03-18T05:06:04.839Z,21.10
2023-03-18T05:11:25.352Z,20.75
2023-03-18T05:16:31.558Z,14.80
2023-03-18T05:21:36.690Z,17.23
2023-03-18T05:26:41.348Z,19.08
2023-03-18T05:31:47.958Z,18.00
2023-03-18T05:36:55.135Z,16.88
2023-03-18T05:41:59.656Z,12.73
2023-03-18T05:47:08.521Z,18.70
2023-03-18T05:52:32.839Z,18.23
2023-03-18T05:57:40.522Z,20.05
2023-03-18T06:02:49.715Z,18.08
2023-03-18T06:07:55.419Z,21.55
2023-03-18T06:13:00.292Z,14.57
2023-03-18T06:18:06.291Z,18.38
2023-03-18T06:23:10.546Z,17.65
2023-03-18T06:28:15.407Z,18.42
2023-03-18T06:33:21.425Z,18.55
2023-03-18T06:38:25.601Z,18.40
2023-03-18T06:43:31.178Z,18.80
2023-03-18T06:48:40.321Z,12.82
2023-03-18T06:53:45.524Z,15.55
2023-03-18T06:58:50.114Z,14.90
2023-03-18T07:03:56.043Z,16.45
2023-03-18T07:09:01.234Z,16.67
2023-03-18T07:14:06.191Z,17.27
2023-03-18T07:19:15.321Z,11.85
2023-03-18T07:24:22.849Z,14.50
2023-03-18T07:29:27.020Z,12.73
2023-03-18T07:34:32.590Z,16.45
2023-03-18T07:39:37.418Z,13.30
2023-03-18T07:44:41.769Z,13.52
2023-03-18T07:49:47.454Z,13.57
2023-03-18T07:54:51.472Z,16.65
2023-03-18T07:59:56.223Z,12.60
2023-03-18T08:05:01.609Z,14.85
2023-03-18T08:10:06.840Z,15.45
2023-03-18T08:15:12.260Z,10.20
2023-03-18T08:20:18.050Z,14.15
2023-03-18T08:25:23.658Z,10.80
2023-03-18T08:30:28.921Z,12.63
2023-03-18T08:35:36.132Z,10.20
2023-03-18T08:40:42.503Z,14.70
2023-03-18T08:45:47.276Z,9.68
2023-03-18T08:50:53.703Z,10.95
2023-03-18T08:55:57.822Z,9.18
2023-03-18T09:01:03.488Z,10.30
2023-03-18T09:06:09.907Z,7.07
2023-03-18T09:11:14.184Z,7.63
2023-03-18T09:16:18.508Z,8.55
2023-03-18T09:21:24.075Z,9.38
2023-03-18T09:26:28.064Z,9.85
2023-03-18T09:31:32.699Z,5.60
2023-03-18T09:36:38.142Z,6.13
2023-03-18T09:41:59.840Z,5.95
2023-03-18T09:47:24.595Z,10.88
2023-03-18T09:52:37.183Z,9.52
2023-03-18T09:57:45.488Z,9.13
2023-03-18T10:02:54.742Z,9.07
2023-03-18T10:08:07.903Z,10.40
2023-03-18T10:13:18.949Z,10.18
2023-03-18T10:18:30.980Z,6.55
2023-03-18T10:23:50.828Z,11.90
2023-03-18T10:29:13.532Z,12.82
2023-03-18T10:34:21.987Z,6.35
2023-03-18T10:39:29.472Z,9.35
2023-03-18T10:44:37.538Z,8.82
2023-03-18T10:49:50.755Z,6.20
2023-03-18T10:54:56.286Z,8.35
2023-03-18T11:00:00.460Z,4.78
2023-03-18T11:05:16.994Z,7.60
2023-03-18T11:10:28.915Z,7.22
2023-03-18T11:15:38.486Z,8.38
2023-03-18T11:20:48.056Z,6.75
2023-03-18T11:25:57.053Z,7.13
2023-03-18T11:31:08.042Z,7.45
2023-03-18T11:36:19.363Z,6.20
2023-03-18T11:41:27.890Z,6.25
2023-03-18T11:46:36.384Z,9.55
2023-03-18T11:51:47.804Z,4.43
2023-03-18T11:56:58.727Z,6.60
2023-03-18T12:02:45.256Z,7.05
2023-03-18T12:13:31.824Z,7.97
2023-03-18T12:19:05.113Z,10.43
2023-03-18T12:24:47.682Z,4.78
2023-03-18T12:30:09.791Z,3.78
2023-03-18T12:35:42.767Z,5.88
2023-03-18T12:40:59.490Z,6.90
2023-03-18T12:46:13.286Z,8.30
2023-03-18T12:51:26.059Z,4.60
2023-03-18T12:56:32.749Z,4.47
2023-03-18T13:01:47.914Z,11.57
2023-03-18T13:07:02.224Z,5.32
2023-03-18T13:12:11.630Z,4.00
2023-03-18T13:17:23.971Z,3.33
2023-03-18T13:23:13.126Z,4.03
2023-03-18T13:28:51.472Z,6.75
2023-03-18T13:34:26.727Z,4.20
2023-03-18T13:39:52.732Z,3.95
2023-03-18T13:45:08.993Z,4.67
2023-03-18T13:50:33.084Z,2.92
2023-03-18T13:55:48.064Z,4.97
2023-03-18T14:01:40.370Z,3.97
2023-03-18T14:06:55.565Z,4.50
2023-03-18T14:12:19.024Z,3.72
2023-03-18T14:17:48.184Z,2.22
2023-03-18T14:22:55.078Z,4.75
2023-03-18T14:28:14.756Z,3.42
2023-03-18T14:33:54.122Z,3.40
2023-03-18T14:39:04.202Z,2.58
2023-03-18T14:44:21.500Z,5.03
2023-03-18T14:49:36.646Z,3.65
2023-03-18T14:54:46.111Z,2.05
2023-03-18T14:59:50.542Z,4.05
2023-03-18T15:04:57.161Z,3.20
2023-03-18T15:10:12.077Z,3.22
2023-03-18T15:15:18.875Z,6.68
2023-03-18T15:20:24.186Z,2.45
2023-03-18T15:25:30.901Z,2.05
2023-03-18T15:30:35.382Z,4.43
2023-03-18T15:35:40.285Z,2.72
2023-03-18T15:40:50.877Z,3.13
2023-03-18T15:45:58.953Z,3.65
2023-03-18T15:51:05.285Z,3.13
2023-03-18T15:56:19.697Z,4.88
2023-03-18T16:01:23.761Z,5.22
2023-03-18T16:06:28.839Z,2.95
2023-03-18T16:11:36.943Z,5.10
2023-03-18T16:16:41.043Z,3.65
2023-03-18T16:21:45.673Z,3.92
2023-03-18T16:26:52.904Z,4.13
2023-03-18T16:31:57.128Z,3.22
2023-03-18T16:37:01.807Z,3.28
2023-03-18T16:42:10.511Z,5.40
2023-03-18T16:47:23.097Z,5.80
2023-03-18T16:52:27.504Z,2.85
2023-03-18T16:57:33.473Z,6.57
2023-03-18T17:02:38.107Z,5.72
2023-03-18T17:07:42.149Z,5.38
2023-03-18T17:12:54.058Z,3.85
2023-03-18T17:17:59.745Z,3.13
2023-03-18T17:23:04.653Z,4.63
2023-03-18T17:28:18.624Z,3.75
2023-03-18T17:33:27.280Z,5.40
2023-03-18T17:38:32.341Z,5.43
2023-03-18T17:43:38.313Z,5.35
2023-03-18T17:48:42.495Z,5.03
2023-03-18T17:53:49.464Z,7.35
2023-03-18T18:04:01.807Z,8.20
2023-03-18T18:09:06.601Z,4.93
2023-03-18T18:14:20.488Z,7.15
2023-03-18T18:19:25.111Z,5.78
2023-03-18T18:24:31.576Z,8.15
2023-03-18T18:29:37.963Z,3.35
2023-03-18T18:34:42.168Z,5.00
2023-03-18T18:39:46.204Z,2.85
2023-03-18T18:44:52.762Z,2.40
2023-03-18T18:49:56.768Z,6.80
2023-03-18T18:55:01.097Z,4.00
2023-03-18T19:00:11.413Z,0.70
2023-03-18T19:05:16.574Z,2.97
2023-03-18T19:10:21.396Z,1.30
2023-03-18T19:15:26.880Z,1.17
2023-03-18T19:20:32.266Z,1.48
2023-03-18T19:25:36.481Z,1.63
2023-03-18T19:30:42.707Z,3.17
2023-03-18T19:35:47.472Z,2.17
2023-03-18T19:40:52.891Z,2.33
2023-03-18T19:45:58.724Z,1.50
2023-03-18T19:51:03.462Z,2.63
2023-03-18T19:56:18.922Z,1.77
2023-03-18T20:01:25.396Z,1.33
2023-03-18T20:06:29.493Z,3.85
2023-03-18T20:11:35.633Z,1.10
2023-03-18T20:16:41.250Z,2.23
2023-03-18T20:21:45.731Z,2.88
2023-03-18T20:26:49.955Z,1.50
2023-03-18T20:31:56.741Z,2.17
2023-03-18T20:37:00.917Z,1.95
2023-03-18T20:42:05.230Z,2.08
2023-03-18T20:47:10.911Z,1.65
2023-03-18T20:52:30.497Z,3.60
2023-03-18T20:57:34.560Z,1.40
2023-03-18T21:02:40.093Z,1.42
2023-03-18T21:07:45.066Z,1.42
2023-03-18T21:12:50.235Z,1.33
2023-03-18T21:17:55.921Z,0.93
2023-03-18T21:23:00.037Z,2.17
2023-03-18T21:28:04.404Z,1.27
2023-03-18T21:33:23.139Z,1.73
2023-03-18T21:38:29.320Z,2.97
2023-03-18T21:43:35.899Z,2.87
2023-03-18T21:48:41.675Z,2.90
2023-03-18T21:53:47.562Z,2.97
2023-03-18T21:58:51.755Z,2.08
2023-03-18T22:03:57.643Z,1.33
2023-03-18T22:09:02.359Z,3.97
2023-03-18T22:14:06.503Z,1.20
2023-03-18T22:19:12.064Z,1.65
2023-03-18T22:24:16.380Z,2.53
2023-03-18T22:29:20.469Z,5.15
2023-03-18T22:34:32.803Z,3.33
2023-03-18T22:39:37.385Z,6.47
2023-03-18T22:44:41.549Z,2.75
2023-03-18T22:49:47.616Z,2.67
2023-03-18T22:54:56.208Z,3.42
2023-03-18T23:00:00.724Z,1.40
2023-03-18T23:05:07.891Z,2.47
2023-03-18T23:10:14.081Z,4.82
2023-03-18T23:15:20.772Z,2.40
2023-03-18T23:20:26.309Z,1.80
2023-03-18T23:25:30.356Z,2.22
2023-03-18T23:30:39.790Z,3.20
2023-03-18T23:35:45.506Z,2.80
2023-03-18T23:40:49.593Z,1.98
2023-03-18T23:45:53.741Z,3.35
2023-03-18T23:50:59.203Z,1.38
2023-03-18T23:56:03.385Z,4.95
